Time;durP1;ratioP1;P1;durP2;ratioP2;P2;SDS_P1;SDS_P2;PMS_P1;PMS_P2;Temp;Humidity;BMP_temperature;BMP_pressure;BME280_temperature;BME280_humidity;BME280_pressure;Samples;Min_cycle;Max_cycle;Signal;HPM_P1;HPM_P2
2023/07/30 00:00:03;;;;;;;3.70;3.40;;;;;;;22.74;58.95;94674.59;5073868;28;20537;-79
2023/07/30 00:02:29;;;;;;;3.40;3.10;;;;;;;22.77;59.19;94669.63;5073503;28;20457;-79
2023/07/30 00:04:56;;;;;;;7.90;3.53;;;;;;;22.69;59.49;94674.41;5074163;28;20460;-79
2023/07/30 00:07:23;;;;;;;5.77;3.40;;;;;;;22.63;59.24;94669.91;5073084;28;20432;-79
2023/07/30 00:09:51;;;;;;;3.23;2.90;;;;;;;22.66;59.48;94670.31;5073404;28;20826;-80
2023/07/30 00:12:18;;;;;;;7.80;3.33;;;;;;;22.62;59.79;94668.25;5073237;28;20454;-78
2023/07/30 00:14:45;;;;;;;3.50;2.80;;;;;;;22.55;59.92;94674.44;5073705;28;20446;-79
2023/07/30 00:17:12;;;;;;;3.37;3.07;;;;;;;22.51;60.07;94669.72;5073560;28;20441;-79
2023/07/30 00:19:38;;;;;;;3.90;3.60;;;;;;;22.49;60.25;94672.59;5072734;28;20521;-79
2023/07/30 00:22:06;;;;;;;3.73;3.30;;;;;;;22.42;60.75;94662.94;5073170;28;20449;-79
2023/07/30 00:24:33;;;;;;;3.40;3.20;;;;;;;22.49;60.58;94666.41;5073737;28;20431;-79
2023/07/30 00:27:01;;;;;;;4.97;3.50;;;;;;;22.48;60.86;94667.44;5021537;28;20452;-79
2023/07/30 00:29:28;;;;;;;3.80;3.50;;;;;;;22.48;60.82;94670.94;5073054;28;20437;-79
2023/07/30 00:31:55;;;;;;;3.60;3.40;;;;;;;22.46;61.24;94669.50;5073502;28;20459;-79
2023/07/30 00:34:21;;;;;;;5.40;3.33;;;;;;;22.45;61.56;94658.00;5072807;28;20460;-79
2023/07/30 00:36:48;;;;;;;4.47;3.50;;;;;;;22.40;61.64;94665.81;5072874;28;20447;-78
2023/07/30 00:39:15;;;;;;;3.33;2.80;;;;;;;22.33;61.67;94656.19;5021758;28;20976;-79
2023/07/30 00:41:42;;;;;;;3.20;2.90;;;;;;;22.25;61.96;94658.00;5021883;28;20444;-79
2023/07/30 00:44:10;;;;;;;5.07;3.30;;;;;;;22.34;62.12;94663.16;5072978;28;20452;-79
2023/07/30 00:46:37;;;;;;;4.07;3.43;;;;;;;22.37;62.41;94650.19;5072814;28;21010;-79
2023/07/30 00:49:03;;;;;;;4.43;4.03;;;;;;;22.34;62.79;94649.81;5073405;28;20479;-79
2023/07/30 00:51:33;;;;;;;4.30;3.93;;;;;;;22.34;62.71;94655.16;5073239;28;20441;-79
2023/07/30 00:54:00;;;;;;;4.40;4.03;;;;;;;22.36;62.98;94658.44;5075950;28;20449;-79
2023/07/30 00:56:27;;;;;;;4.80;4.40;;;;;;;22.35;63.17;94657.63;5085530;28;20447;-78
2023/07/30 00:58:55;;;;;;;6.30;4.30;;;;;;;22.34;63.34;94660.50;5080786;28;20812;-80
2023/07/30 01:01:24;;;;;;;4.20;3.90;;;;;;;22.29;63.44;94660.31;5072737;28;20440;-79
2023/07/30 01:03:51;;;;;;;4.47;4.07;;;;;;;22.26;63.41;94658.84;5038007;28;20447;-79
2023/07/30 01:06:18;;;;;;;4.80;4.30;;;;;;;22.25;63.77;94650.00;5021666;28;20434;-79
2023/07/30 01:08:45;;;;;;;5.10;4.63;;;;;;;22.19;63.69;94656.19;5072538;28;20928;-79
2023/07/30 01:11:12;;;;;;;3.77;3.57;;;;;;;22.06;63.97;94650.03;5021726;28;20847;-79
2023/07/30 01:13:40;;;;;;;3.93;3.70;;;;;;;22.06;64.04;94658.88;5038309;28;20955;-79
2023/07/30 01:16:07;;;;;;;4.10;3.80;;;;;;;22.06;64.11;94655.38;5076340;28;20939;-80
2023/07/30 01:18:35;;;;;;;6.87;4.30;;;;;;;21.94;64.55;94663.13;5076534;28;20459;-79
2023/07/30 01:21:04;;;;;;;4.90;4.40;;;;;;;21.99;64.58;94666.03;5075874;28;20839;-79
2023/07/30 01:23:30;;;;;;;6.20;4.80;;;;;;;21.92;64.46;94673.22;5075660;28;20759;-79
2023/07/30 01:26:04;;;;;;;5.10;4.53;;;;;;;21.85;64.36;94667.88;5076103;28;20439;-79
2023/07/30 01:28:38;;;;;;;8.77;4.40;;;;;;;21.81;64.90;94660.47;5075856;28;20446;-79
2023/07/30 01:31:06;;;;;;;4.33;3.97;;;;;;;21.80;64.79;94661.50;5024751;28;20482;-79
2023/07/30 01:33:33;;;;;;;5.03;4.50;;;;;;;21.82;65.12;94662.13;5075895;28;20933;-79
2023/07/30 01:36:02;;;;;;;4.70;4.23;;;;;;;21.79;65.47;94657.19;5075984;28;20444;-79
2023/07/30 01:38:31;;;;;;;5.03;4.50;;;;;;;21.72;65.71;94661.72;5076508;28;20450;-80
2023/07/30 01:40:58;;;;;;;4.80;4.30;;;;;;;21.67;65.32;94659.63;5024086;28;20494;-79
2023/07/30 01:43:27;;;;;;;5.70;4.30;;;;;;;21.67;65.10;94666.81;5024122;28;20438;-78
2023/07/30 01:45:53;;;;;;;5.10;4.60;;;;;;;21.65;65.19;94670.50;5075584;28;20824;-80
2023/07/30 01:48:20;;;;;;;4.67;4.27;;;;;;;21.59;65.20;94668.66;5075449;28;20434;-79
2023/07/30 01:50:48;;;;;;;5.10;4.70;;;;;;;21.49;65.48;94665.56;5075791;28;20438;-79
2023/07/30 01:53:15;;;;;;;4.10;3.70;;;;;;;21.55;65.49;94669.28;5075424;28;20452;-79
2023/07/30 01:55:45;;;;;;;4.10;3.80;;;;;;;21.54;65.10;94671.13;5076139;28;20440;-79
2023/07/30 01:58:14;;;;;;;5.03;4.53;;;;;;;21.54;65.30;94670.31;5075724;28;20437;-79
2023/07/30 02:00:41;;;;;;;5.57;4.20;;;;;;;21.50;65.59;94667.22;5075653;28;20488;-79
2023/07/30 02:03:08;;;;;;;4.00;3.60;;;;;;;21.49;64.99;94673.59;5075636;28;20462;-79
2023/07/30 02:05:34;;;;;;;4.47;4.17;;;;;;;21.41;65.56;94671.13;5075964;28;20447;-79
2023/07/30 02:08:01;;;;;;;5.33;4.17;;;;;;;21.45;65.27;94666.19;5075454;28;20431;-78
2023/07/30 02:10:28;;;;;;;4.80;4.40;;;;;;;21.45;65.45;94676.88;5024161;28;20811;-78
2023/07/30 02:12:56;;;;;;;7.00;4.63;;;;;;;21.46;65.79;94671.31;5075658;28;20441;-79
2023/07/30 02:15:23;;;;;;;5.80;4.43;;;;;;;21.45;65.94;94671.53;5075910;28;20453;-78
2023/07/30 02:17:50;;;;;;;5.00;4.50;;;;;;;21.44;66.39;94675.22;5075134;28;20437;-79
2023/07/30 02:20:17;;;;;;;6.40;4.90;;;;;;;21.43;66.46;94681.59;5075062;28;20577;-79
2023/07/30 02:22:44;;;;;;;5.93;4.57;;;;;;;21.48;66.83;94677.28;5075193;28;20450;-78
2023/07/30 02:25:10;;;;;;;5.47;4.60;;;;;;;21.44;66.72;94678.72;5040060;28;20442;-79
2023/07/30 02:27:37;;;;;;;4.80;4.40;;;;;;;21.47;66.18;94691.66;5075099;28;20810;-79
2023/07/30 02:30:07;;;;;;;4.60;4.10;;;;;;;21.44;66.46;94686.72;5075108;28;20449;-78
2023/07/30 02:32:34;;;;;;;5.73;4.37;;;;;;;21.47;66.12;94688.16;5074546;28;20455;-78
2023/07/30 02:35:01;;;;;;;5.40;4.40;;;;;;;21.48;66.66;94693.31;5074498;28;20450;-79
2023/07/30 02:37:27;;;;;;;6.70;5.57;;;;;;;21.48;66.74;94687.13;5074943;28;21584;-79
2023/07/30 02:39:54;;;;;;;7.13;4.60;;;;;;;21.46;67.05;94698.03;5075105;28;20515;-79
2023/07/30 02:42:21;;;;;;;5.03;4.53;;;;;;;21.40;67.28;94692.66;5074935;28;20428;-79
2023/07/30 02:44:48;;;;;;;5.73;5.00;;;;;;;21.36;67.50;94696.75;5074775;28;20431;-79
2023/07/30 02:47:16;;;;;;;4.67;4.23;;;;;;;21.34;67.23;94691.59;5074959;28;20483;-79
2023/07/30 02:49:43;;;;;;;4.67;4.27;;;;;;;21.34;66.67;94702.28;5074678;28;20476;-79
2023/07/30 02:52:09;;;;;;;4.80;4.40;;;;;;;21.28;66.59;94697.75;5022685;28;20795;-79
2023/07/30 02:54:36;;;;;;;7.50;4.40;;;;;;;21.25;66.69;94692.81;5074354;28;20448;-79
2023/07/30 02:57:03;;;;;;;4.93;4.37;;;;;;;21.25;66.49;94695.47;5073887;28;20448;-79
2023/07/30 02:59:30;;;;;;;4.43;4.17;;;;;;;21.22;66.19;94709.19;5074024;28;20442;-79
2023/07/30 03:01:59;;;;;;;4.40;4.00;;;;;;;21.16;66.62;94705.50;5074940;28;20501;-79
2023/07/30 03:04:27;;;;;;;5.10;4.37;;;;;;;21.12;66.74;94703.44;5074363;28;20525;-79
2023/07/30 03:06:54;;;;;;;4.33;4.00;;;;;;;21.11;66.54;94699.94;5022634;28;20448;-79
2023/07/30 03:09:20;;;;;;;5.53;4.47;;;;;;;21.08;66.85;94702.16;5074133;28;20489;-79
2023/07/30 03:11:47;;;;;;;4.30;3.90;;;;;;;21.08;66.97;94707.50;5074010;28;20428;-79
2023/07/30 03:14:14;;;;;;;4.50;4.10;;;;;;;21.01;67.66;94708.28;5073907;28;20425;-79
2023/07/30 03:16:41;;;;;;;6.70;4.60;;;;;;;20.84;68.62;94715.00;5073903;28;20449;-78
2023/07/30 03:19:10;;;;;;;4.53;4.13;;;;;;;20.84;68.62;94707.00;5074067;28;20439;-79
2023/07/30 03:21:38;;;;;;;7.43;5.27;;;;;;;20.84;69.14;94711.50;5074188;28;20480;-79
2023/07/30 03:24:05;;;;;;;4.77;4.23;;;;;;;20.88;68.84;94702.91;5074170;28;20807;-79
2023/07/30 03:26:31;;;;;;;8.50;5.43;;;;;;;20.85;68.81;94707.81;5022338;28;20946;-79
2023/07/30 03:28:58;;;;;;;8.17;4.87;;;;;;;20.96;67.94;94705.41;5074221;28;20436;-79
2023/07/30 03:31:25;;;;;;;6.33;5.73;;;;;;;20.98;68.52;94708.69;5074294;28;20799;-79
2023/07/30 03:33:52;;;;;;;7.03;5.27;;;;;;;21.05;68.68;94703.38;5074024;28;20456;-79
2023/07/30 03:36:19;;;;;;;8.03;6.13;;;;;;;21.02;69.09;94698.44;5073866;28;20421;-80
2023/07/30 03:38:47;;;;;;;5.13;4.73;;;;;;;21.02;69.32;94703.78;5022390;28;20445;-80
2023/07/30 03:41:14;;;;;;;7.07;4.97;;;;;;;20.94;70.04;94707.44;5074326;28;20480;-79
2023/07/30 03:43:41;;;;;;;5.53;5.00;;;;;;;20.90;70.45;94702.72;5073751;28;20448;-79
2023/07/30 03:46:07;;;;;;;7.80;5.87;;;;;;;20.81;70.45;94701.19;5074109;28;20924;-78
2023/07/30 03:48:34;;;;;;;5.63;5.13;;;;;;;20.77;71.03;94697.28;5076802;28;20490;-79
2023/07/30 03:51:01;;;;;;;6.20;5.60;;;;;;;20.80;71.13;94700.38;5074304;28;20451;-79
2023/07/30 03:53:29;;;;;;;6.23;5.63;;;;;;;20.75;71.42;94704.66;5083216;28;20433;-79
2023/07/30 03:55:57;;;;;;;6.10;5.60;;;;;;;20.74;71.53;94709.16;5058715;28;20447;-80
2023/07/30 03:58:24;;;;;;;4.83;4.40;;;;;;;20.69;71.88;94708.94;5093291;28;20784;-80
2023/07/30 04:00:51;;;;;;;6.20;4.80;;;;;;;21.11;70.62;94715.13;5094627;28;20479;-80
2023/07/30 04:03:18;;;;;;;5.50;5.00;;;;;;;21.61;69.02;94716.53;5093511;28;20827;-79
2023/07/30 04:05:44;;;;;;;5.57;5.10;;;;;;;22.09;66.86;94713.75;5093423;28;20429;-80
2023/07/30 04:08:11;;;;;;;5.40;4.90;;;;;;;22.46;65.38;94723.81;5093764;28;20440;-80
2023/07/30 04:10:38;;;;;;;5.77;5.17;;;;;;;22.81;63.76;94724.41;5042003;28;20448;-80
2023/07/30 04:13:07;;;;;;;5.20;4.70;;;;;;;23.25;62.29;94716.66;5093620;28;20821;-80
2023/07/30 04:15:34;;;;;;;5.60;5.20;;;;;;;23.49;61.51;94722.13;5093757;28;20448;-79
2023/07/30 04:18:01;;;;;;;5.13;4.13;;;;;;;23.77;60.59;94721.78;5093263;28;20928;-79
2023/07/30 04:20:28;;;;;;;5.00;4.47;;;;;;;24.30;59.17;94723.31;5093209;28;20807;-79
2023/07/30 04:22:55;;;;;;;5.70;4.73;;;;;;;24.70;57.76;94721.09;5094097;28;20447;-79
2023/07/30 04:25:21;;;;;;;5.53;5.03;;;;;;;25.02;56.66;94728.00;5093364;28;20450;-80
2023/07/30 04:27:48;;;;;;;5.53;4.80;;;;;;;25.26;55.48;94723.63;5094216;28;20797;-79
2023/07/30 04:30:16;;;;;;;5.00;4.27;;;;;;;25.47;54.95;94727.72;5093307;28;20428;-79
2023/07/30 04:32:43;;;;;;;4.60;4.20;;;;;;;25.75;54.29;94726.34;5092982;28;20452;-79
2023/07/30 04:35:10;;;;;;;4.77;4.37;;;;;;;25.90;53.81;94729.44;5093227;28;20447;-79
2023/07/30 04:37:37;;;;;;;4.70;4.30;;;;;;;25.96;53.21;94722.31;5093641;28;20448;-80
2023/07/30 04:40:04;;;;;;;4.23;3.93;;;;;;;26.08;52.73;94732.06;5041092;28;20436;-79
2023/07/30 04:42:31;;;;;;;4.70;4.27;;;;;;;26.20;52.25;94726.72;5092954;28;20462;-79
2023/07/30 04:44:58;;;;;;;5.93;4.73;;;;;;;26.49;51.45;94730.41;5058174;28;20795;-79
2023/07/30 04:47:28;;;;;;;4.67;4.27;;;;;;;26.64;50.95;94732.66;5046018;28;20447;-79
2023/07/30 04:49:54;;;;;;;5.17;4.03;;;;;;;26.78;50.31;94739.44;5109749;28;20475;-78
2023/07/30 04:52:21;;;;;;;7.83;4.33;;;;;;;27.07;50.30;94727.75;5104482;28;20452;-79
2023/07/30 04:54:48;;;;;;;6.63;5.00;;;;;;;27.33;49.24;94722.91;5097095;28;20837;-79
2023/07/30 04:57:15;;;;;;;5.17;4.77;;;;;;;27.36;49.21;94725.13;5097446;28;20447;-79
2023/07/30 04:59:41;;;;;;;6.30;4.43;;;;;;;27.48;48.02;94723.25;5044508;28;20430;-79
2023/07/30 05:02:08;;;;;;;4.47;4.07;;;;;;;27.70;48.54;94729.63;5097090;28;20491;-79
2023/07/30 05:04:36;;;;;;;4.20;3.90;;;;;;;27.66;46.77;94731.16;5096656;28;20962;-79
2023/07/30 05:07:04;;;;;;;5.00;3.87;;;;;;;27.44;46.80;94732.84;5096086;28;20432;-79
2023/07/30 05:09:30;;;;;;;4.00;3.70;;;;;;;27.30;47.67;94735.00;5096320;28;20464;-79
2023/07/30 05:11:57;;;;;;;4.30;3.90;;;;;;;27.06;48.15;94728.81;5096070;28;20927;-79
2023/07/30 05:14:24;;;;;;;5.10;4.70;;;;;;;27.19;48.04;94729.63;5096656;28;20447;-78
2023/07/30 05:16:51;;;;;;;4.70;4.30;;;;;;;27.46;48.02;94725.34;5095900;28;20957;-80
2023/07/30 05:19:18;;;;;;;5.40;4.90;;;;;;;27.75;47.04;94732.41;5096487;28;20452;-79
2023/07/30 05:21:46;;;;;;;4.37;3.93;;;;;;;27.94;47.11;94724.97;5096094;28;20475;-78
2023/07/30 05:24:13;;;;;;;4.90;4.50;;;;;;;28.57;45.91;94725.81;5095736;28;20443;-79
2023/07/30 05:26:40;;;;;;;8.40;4.70;;;;;;;28.94;47.46;94732.38;5095884;28;20459;-79
2023/07/30 05:29:07;;;;;;;8.40;4.67;;;;;;;29.19;46.03;94722.97;5096279;28;20448;-78
2023/07/30 05:31:33;;;;;;;7.30;4.23;;;;;;;29.47;44.92;94730.94;5096104;28;20917;-78
2023/07/30 05:34:00;;;;;;;4.47;3.53;;;;;;;29.30;43.69;94725.56;5096095;28;20778;-79
2023/07/30 05:36:27;;;;;;;5.33;4.80;;;;;;;29.05;44.78;94727.09;5096526;28;20447;-78
2023/07/30 05:38:55;;;;;;;4.80;4.30;;;;;;;29.33;44.54;94740.47;5080011;28;20453;-79
2023/07/30 05:41:22;;;;;;;5.73;4.60;;;;;;;28.72;43.74;94734.16;5099111;28;20493;-78
2023/07/30 05:43:49;;;;;;;7.40;4.83;;;;;;;28.93;43.74;94738.03;5080106;28;20803;-80
2023/07/30 05:46:16;;;;;;;4.27;3.87;;;;;;;29.21;45.02;94737.06;5076889;28;20449;-79
2023/07/30 05:48:42;;;;;;;5.40;5.00;;;;;;;29.48;42.82;94737.97;5087618;28;20484;-80
2023/07/30 05:51:09;;;;;;;5.50;4.97;;;;;;;29.72;45.10;94743.13;5089783;28;20972;-79
2023/07/30 05:53:36;;;;;;;4.90;4.00;;;;;;;30.02;42.71;94742.66;5060417;28;20454;-80
2023/07/30 05:56:05;;;;;;;5.30;4.77;;;;;;;30.44;42.01;94740.16;5095567;28;20448;-79
2023/07/30 05:58:31;;;;;;;4.63;4.23;;;;;;;30.42;41.22;94745.00;5082324;28;20456;-80
2023/07/30 06:01:00;;;;;;;5.13;4.63;;;;;;;29.71;42.38;94738.81;5091544;28;20468;-79
2023/07/30 06:03:27;;;;;;;5.20;4.80;;;;;;;29.84;42.64;94743.84;5084744;28;20954;-79
2023/07/30 06:05:54;;;;;;;5.03;4.60;;;;;;;29.84;42.56;94743.84;5075605;28;20432;-79
2023/07/30 06:08:21;;;;;;;7.90;4.63;;;;;;;29.94;42.74;94743.94;5075383;28;20491;-79
2023/07/30 06:10:47;;;;;;;6.20;5.03;;;;;;;30.19;42.12;94744.25;5093605;28;20448;-79
2023/07/30 06:13:16;;;;;;;6.17;5.57;;;;;;;29.92;41.76;94744.19;5095355;28;20918;-79
2023/07/30 06:15:43;;;;;;;5.80;5.10;;;;;;;29.88;42.32;94742.25;5096020;28;20439;-79
2023/07/30 06:18:12;;;;;;;5.13;4.73;;;;;;;30.20;42.36;94740.47;5095248;28;20444;-79
2023/07/30 06:20:39;;;;;;;6.27;5.13;;;;;;;30.26;41.06;94743.22;5093056;28;20440;-78
2023/07/30 06:23:06;;;;;;;4.87;4.50;;;;;;;30.42;42.17;94731.47;5080246;28;20460;-78
2023/07/30 06:25:32;;;;;;;8.83;4.87;;;;;;;30.84;41.03;94736.97;5087609;28;20945;-78
2023/07/30 06:27:59;;;;;;;4.77;4.47;;;;;;;30.73;39.38;94727.97;5074897;28;20433;-78
2023/07/30 06:30:28;;;;;;;4.70;4.30;;;;;;;30.94;40.08;94733.50;5084591;28;20819;-78
2023/07/30 06:32:55;;;;;;;7.67;5.10;;;;;;;31.20;39.37;94724.50;5095412;28;20451;-77
2023/07/30 06:35:22;;;;;;;4.20;3.80;;;;;;;31.36;39.46;94728.94;5094765;28;20786;-77
2023/07/30 06:37:48;;;;;;;4.73;4.33;;;;;;;31.31;38.58;94728.09;5094638;28;20448;-78
2023/07/30 06:40:16;;;;;;;4.80;4.40;;;;;;;31.23;38.47;94715.84;5094529;28;20447;-78
2023/07/30 06:42:43;;;;;;;9.03;4.33;;;;;;;31.35;39.07;94721.06;5094418;28;20476;-78
2023/07/30 06:45:10;;;;;;;7.10;5.07;;;;;;;31.39;38.70;94716.72;5094669;28;20448;-78
2023/07/30 06:47:38;;;;;;;5.47;4.93;;;;;;;31.39;38.63;94714.84;5042532;28;20448;-78
2023/07/30 06:50:08;;;;;;;6.87;4.93;;;;;;;31.72;38.72;94713.66;5094600;28;20471;-78
2023/07/30 06:52:35;;;;;;;5.13;4.63;;;;;;;31.88;37.20;94708.28;5041567;28;21014;-78
2023/07/30 06:55:02;;;;;;;4.77;4.37;;;;;;;31.47;38.02;94699.13;5041971;28;21570;-78
2023/07/30 06:57:29;;;;;;;4.60;4.20;;;;;;;31.59;38.88;94707.88;5093883;28;20444;-78
2023/07/30 07:00:00;;;;;;;5.73;4.10;;;;;;;31.73;38.51;94704.41;5094021;28;20806;-78
2023/07/30 07:02:27;;;;;;;6.47;4.17;;;;;;;31.75;37.44;94706.88;5094046;28;20488;-78
2023/07/30 07:04:58;;;;;;;5.00;4.50;;;;;;;31.21;37.97;94692.78;5093939;28;20443;-78
2023/07/30 07:07:25;;;;;;;5.07;4.63;;;;;;;31.41;38.35;94698.31;5094100;28;20444;-78
2023/07/30 07:09:52;;;;;;;5.10;4.60;;;;;;;30.88;38.75;94680.34;5094175;28;20459;-77
2023/07/30 07:12:18;;;;;;;4.63;4.23;;;;;;;30.93;38.53;94691.22;5093554;28;20436;-78
2023/07/30 07:14:45;;;;;;;5.97;4.80;;;;;;;30.72;39.70;94687.59;5094052;28;20440;-77
2023/07/30 07:17:14;;;;;;;6.07;4.50;;;;;;;30.37;40.71;94685.41;5093868;28;20444;-78
2023/07/30 07:19:41;;;;;;;5.40;4.90;;;;;;;30.74;41.05;94680.00;5093886;28;20443;-78
2023/07/30 07:22:09;;;;;;;5.30;4.80;;;;;;;31.17;39.73;94684.34;5093710;28;20852;-79
2023/07/30 07:24:36;;;;;;;4.60;4.20;;;;;;;31.62;40.72;94674.78;5093778;28;20459;-77
2023/07/30 07:27:03;;;;;;;4.67;3.87;;;;;;;31.70;37.72;94676.97;5093936;28;20440;-77
2023/07/30 07:29:33;;;;;;;4.40;4.10;;;;;;;31.14;37.09;94668.59;5096147;28;20776;-77
2023/07/30 07:32:00;;;;;;;4.67;4.27;;;;;;;31.16;38.68;94671.88;5093901;28;20521;-77
2023/07/30 07:34:26;;;;;;;5.33;4.00;;;;;;;31.42;38.33;94668.19;5093529;28;20456;-77
2023/07/30 07:36:58;;;;;;;4.70;4.30;;;;;;;31.20;37.90;94669.44;5093528;28;20460;-77
2023/07/30 07:39:26;;;;;;;4.57;4.23;;;;;;;31.46;38.74;94660.34;5093835;28;20439;-77
2023/07/30 07:41:53;;;;;;;4.50;4.10;;;;;;;31.55;37.24;94660.66;5093622;28;20483;-77
2023/07/30 07:44:21;;;;;;;5.77;5.07;;;;;;;31.60;38.37;94658.78;5093601;28;20447;-77
2023/07/30 07:46:48;;;;;;;5.33;4.40;;;;;;;31.89;39.17;94656.44;5093975;28;20911;-77
2023/07/30 07:49:17;;;;;;;4.60;4.30;;;;;;;32.07;37.20;94659.72;5093031;28;20476;-77
2023/07/30 07:51:43;;;;;;;8.27;5.27;;;;;;;32.03;38.65;94657.53;5093186;28;20806;-77
2023/07/30 07:54:10;;;;;;;6.33;4.30;;;;;;;32.15;38.77;94653.78;5093681;28;20436;-77
2023/07/30 07:56:39;;;;;;;6.97;4.17;;;;;;;32.29;39.02;94646.72;5041673;28;20444;-77
2023/07/30 07:59:08;;;;;;;5.70;5.13;;;;;;;32.37;38.07;94653.50;5093383;28;20440;-78
2023/07/30 08:01:34;;;;;;;6.30;4.50;;;;;;;32.32;37.38;94643.47;5093070;28;21527;-78
2023/07/30 08:04:02;;;;;;;5.27;4.80;;;;;;;32.30;38.28;94645.66;5093348;28;20809;-77
2023/07/30 08:06:30;;;;;;;5.20;4.80;;;;;;;32.27;37.81;94638.03;5093377;28;20452;-78
2023/07/30 08:08:58;;;;;;;6.03;5.20;;;;;;;31.46;38.47;94645.97;5093252;28;20448;-77
2023/07/30 08:11:27;;;;;;;5.00;4.60;;;;;;;31.47;39.63;94639.47;5093685;28;20518;-77
2023/07/30 08:13:55;;;;;;;5.77;5.20;;;;;;;31.63;38.53;94639.25;5093344;28;20452;-77
2023/07/30 08:16:22;;;;;;;5.57;5.03;;;;;;;31.88;39.83;94638.53;5093631;28;20439;-77
2023/07/30 08:18:50;;;;;;;5.87;5.27;;;;;;;31.77;37.68;94641.47;5093668;28;20440;-79
2023/07/30 08:21:17;;;;;;;5.67;5.17;;;;;;;32.04;39.28;94634.72;5092752;28;20513;-77
2023/07/30 08:23:44;;;;;;;6.07;5.17;;;;;;;32.22;38.87;94633.41;5096453;28;20440;-79
2023/07/30 08:26:11;;;;;;;10.63;4.90;;;;;;;32.37;37.84;94632.59;5097336;28;20443;-78
2023/07/30 08:28:37;;;;;;;6.00;4.63;;;;;;;32.46;37.96;94630.16;5097955;28;20444;-78
2023/07/30 08:31:06;;;;;;;5.40;4.40;;;;;;;32.17;35.74;94621.72;5097530;28;20447;-79
2023/07/30 08:33:34;;;;;;;4.80;4.43;;;;;;;32.26;37.66;94622.84;5097133;28;21010;-79
2023/07/30 08:36:01;;;;;;;6.13;4.57;;;;;;;32.45;35.84;94613.06;5097274;28;20455;-79
2023/07/30 08:38:30;;;;;;;4.40;4.10;;;;;;;32.41;35.21;94614.69;5097478;28;20458;-79
2023/07/30 08:40:59;;;;;;;6.20;4.30;;;;;;;31.92;36.86;94617.09;5104497;28;20443;-78
2023/07/30 08:43:26;;;;;;;4.63;4.10;;;;;;;32.16;36.36;94615.47;5106392;28;20624;-79
2023/07/30 08:45:55;;;;;;;11.13;4.60;;;;;;;32.08;35.83;94607.84;5097865;28;20443;-79
2023/07/30 08:48:27;;;;;;;7.70;4.10;;;;;;;31.92;34.71;94608.94;5044781;28;20436;-79
2023/07/30 08:51:00;;;;;;;4.40;4.10;;;;;;;31.87;34.71;94604.31;5097539;28;20482;-78
2023/07/30 08:53:27;;;;;;;4.10;3.80;;;;;;;32.18;34.41;94604.34;5097240;28;20455;-79
2023/07/30 08:55:55;;;;;;;5.13;4.00;;;;;;;32.31;34.56;94601.91;5097249;28;20443;-78
2023/07/30 08:58:24;;;;;;;4.80;3.63;;;;;;;32.61;35.85;94601.06;5096670;28;20961;-78
2023/07/30 09:00:52;;;;;;;4.03;3.63;;;;;;;32.83;34.81;94602.69;5045118;28;20493;-79
2023/07/30 09:03:19;;;;;;;5.00;4.50;;;;;;;33.01;32.69;94598.56;5044182;28;20478;-79
2023/07/30 09:05:53;;;;;;;4.67;4.27;;;;;;;33.17;33.14;94597.41;5096448;28;20443;-80
2023/07/30 09:08:20;;;;;;;4.57;4.17;;;;;;;32.88;31.74;94600.75;5096282;28;20845;-79
2023/07/30 09:10:49;;;;;;;4.60;4.23;;;;;;;32.73;31.83;94592.63;5096084;28;20446;-78
2023/07/30 09:13:23;;;;;;;10.03;4.70;;;;;;;32.76;34.29;94588.53;5096373;28;20860;-80
2023/07/30 09:15:50;;;;;;;5.00;4.60;;;;;;;32.84;33.57;94585.28;5096483;28;20482;-78
2023/07/30 09:18:18;;;;;;;4.13;3.83;;;;;;;32.96;34.01;94585.78;5095439;28;20448;-80
2023/07/30 09:20:45;;;;;;;7.83;4.40;;;;;;;32.51;32.62;94583.97;5086723;28;20443;-79
2023/07/30 09:23:13;;;;;;;4.93;4.53;;;;;;;32.42;32.34;94575.56;5095691;28;20541;-79
2023/07/30 09:25:40;;;;;;;4.47;4.07;;;;;;;32.45;32.83;94585.06;5095465;28;20439;-79
2023/07/30 09:28:07;;;;;;;4.17;3.87;;;;;;;32.37;31.03;94572.84;5060282;28;20447;-79
2023/07/30 09:30:34;;;;;;;4.30;4.00;;;;;;;32.19;32.40;94579.63;5095092;28;20455;-79
2023/07/30 09:33:01;;;;;;;4.17;3.90;;;;;;;32.32;32.84;94578.28;5095334;28;20436;-79
2023/07/30 09:35:28;;;;;;;5.57;4.10;;;;;;;32.36;31.97;94571.22;5094176;28;20444;-78
2023/07/30 09:38:01;;;;;;;4.50;4.10;;;;;;;32.12;32.22;94575.56;5095497;28;20768;-79
2023/07/30 09:40:35;;;;;;;4.67;4.30;;;;;;;32.42;32.42;94572.84;5095795;28;20444;-80
2023/07/30 09:43:06;;;;;;;7.43;3.93;;;;;;;32.72;32.46;94558.38;5095995;28;20479;-78
2023/07/30 09:45:36;;;;;;;4.50;4.10;;;;;;;32.77;31.14;94557.56;5094174;28;20448;-80
2023/07/30 09:48:05;;;;;;;5.53;4.33;;;;;;;32.16;32.14;94550.31;5082699;28;20910;-82
2023/07/30 09:50:32;;;;;;;7.03;4.30;;;;;;;32.31;31.65;94546.78;5056495;28;20979;-80
2023/07/30 09:53:01;;;;;;;5.33;4.07;;;;;;;32.44;31.87;94548.94;5075509;28;20923;-79
2023/07/30 09:55:28;;;;;;;6.33;5.00;;;;;;;32.51;31.41;94551.38;5074948;28;20480;-79
2023/07/30 09:57:57;;;;;;;5.20;4.80;;;;;;;32.49;31.39;94553.56;5033373;28;20442;-80
2023/07/30 10:00:24;;;;;;;5.03;4.63;;;;;;;32.63;32.06;94551.88;5069364;28;20795;-77
2023/07/30 10:02:51;;;;;;;5.10;4.70;;;;;;;32.72;31.56;94550.25;5071559;28;20491;-78
2023/07/30 10:05:20;;;;;;;6.40;4.23;;;;;;;32.77;30.65;94547.50;5075198;28;20441;-77
2023/07/30 10:07:52;;;;;;;5.30;4.80;;;;;;;32.75;29.69;94552.41;5061665;28;20932;-78
2023/07/30 10:10:20;;;;;;;4.90;4.50;;;;;;;32.53;29.89;94541.84;5075792;28;20950;-79
2023/07/30 10:12:48;;;;;;;4.70;4.40;;;;;;;32.64;30.26;94543.44;5055836;28;20453;-78
2023/07/30 10:15:26;;;;;;;5.10;4.70;;;;;;;32.74;30.34;94539.09;5069193;28;20445;-79
2023/07/30 10:17:53;;;;;;;4.70;4.00;;;;;;;32.72;30.18;94533.13;5055802;28;20446;-79
2023/07/30 10:20:24;;;;;;;4.70;4.30;;;;;;;32.66;30.86;94527.66;5085704;28;20458;-79
2023/07/30 10:22:58;;;;;;;4.50;4.10;;;;;;;32.69;30.91;94531.78;5072211;28;20492;-78
2023/07/30 10:25:30;;;;;;;4.97;4.60;;;;;;;32.63;31.15;94522.78;5074477;28;20476;-79
2023/07/30 10:27:57;;;;;;;4.77;4.37;;;;;;;32.26;30.27;94525.06;5074463;28;20840;-79
2023/07/30 10:30:31;;;;;;;4.87;4.30;;;;;;;32.06;31.26;94512.28;5060979;28;20445;-77
2023/07/30 10:33:00;;;;;;;6.63;4.73;;;;;;;31.95;31.17;94514.22;5074176;28;20926;-76
2023/07/30 10:35:39;;;;;;;4.50;4.10;;;;;;;31.95;30.99;94506.06;5057282;28;20468;-79
2023/07/30 10:38:17;;;;;;;4.90;4.50;;;;;;;31.80;31.26;94508.78;5054598;28;20527;-78
2023/07/30 10:41:01;;;;;;;8.03;4.90;;;;;;;31.83;31.92;94507.44;5061923;28;20440;-78
2023/07/30 10:43:29;;;;;;;5.57;4.63;;;;;;;31.83;31.70;94504.72;5074286;28;20569;-78
2023/07/30 10:46:00;;;;;;;4.70;4.40;;;;;;;31.73;32.67;94500.09;5065032;28;20461;-79
2023/07/30 10:48:33;;;;;;;6.50;5.90;;;;;;;31.72;32.50;94498.47;5063134;28;20551;-78
2023/07/30 10:51:05;;;;;;;5.50;5.00;;;;;;;31.85;32.07;94492.50;5114983;28;20435;-79
2023/07/30 10:53:32;;;;;;;5.53;4.70;;;;;;;32.01;31.98;94485.97;5074785;28;20480;-77
2023/07/30 10:56:02;;;;;;;10.57;5.00;;;;;;;32.12;33.14;94475.91;5074911;28;20777;-78
2023/07/30 10:58:31;;;;;;;6.73;4.90;;;;;;;32.21;31.74;94487.03;5083857;28;20497;-78
2023/07/30 11:01:03;;;;;;;4.80;4.50;;;;;;;32.37;31.84;94477.78;5094629;28;20440;-79
2023/07/30 11:03:32;;;;;;;5.00;4.60;;;;;;;32.48;32.12;94465.81;5043022;28;20554;-78
2023/07/30 11:05:59;;;;;;;5.63;4.63;;;;;;;32.52;34.10;94466.88;5093786;28;20802;-79
2023/07/30 11:08:36;;;;;;;4.97;4.57;;;;;;;32.29;32.15;94470.19;5095300;28;20459;-79
2023/07/30 11:11:03;;;;;;;4.80;4.40;;;;;;;32.44;31.54;94464.72;5093873;28;20527;-79
2023/07/30 11:13:31;;;;;;;5.57;5.07;;;;;;;32.49;31.81;94459.28;5095279;28;20802;-79
2023/07/30 11:16:02;;;;;;;5.17;4.77;;;;;;;32.65;32.10;94458.13;5090042;28;20448;-80
2023/07/30 11:18:32;;;;;;;5.37;4.87;;;;;;;32.54;30.30;94450.28;5085981;28;20448;-79
2023/07/30 11:21:04;;;;;;;6.83;5.57;;;;;;;32.64;32.01;94448.34;5074599;28;20514;-80
2023/07/30 11:23:31;;;;;;;8.13;5.53;;;;;;;32.52;32.15;94447.84;5087062;28;20488;-78
2023/07/30 11:25:57;;;;;;;7.00;4.90;;;;;;;32.55;31.76;94443.75;5094283;28;20451;-80
2023/07/30 11:28:32;;;;;;;6.70;4.80;;;;;;;32.48;32.91;94430.50;5079838;28;20472;-79
2023/07/30 11:31:05;;;;;;;5.40;5.00;;;;;;;32.47;32.15;94447.88;5082294;28;20447;-79
2023/07/30 11:33:32;;;;;;;5.43;5.03;;;;;;;32.55;31.65;94431.00;5106990;28;20451;-79
2023/07/30 11:36:04;;;;;;;5.17;4.67;;;;;;;32.57;31.48;94442.41;5104885;28;21029;-78